Time;durP1;ratioP1;P1;durP2;ratioP2;P2;SDS_P1;SDS_P2;PMS_P1;PMS_P2;Temp;Humidity;BMP_temperature;BMP_pressure;BME280_temperature;BME280_humidity;BME280_pressure;Samples;Min_cycle;Max_cycle;Signal;HPM_P1;HPM_P2
2022/07/05 00:00:03;;;;;;;;;;;;;;;;;;4957981;28;20399;-78
2022/07/05 00:02:29;;;;;;;;;;;;;;;;;;4943003;28;19914;-78
2022/07/05 00:04:55;;;;;;;;;;;;;;;;;;4945710;28;19914;-78
2022/07/05 00:07:21;;;;;;;;;;;;;;;;;;4963189;28;19993;-78
2022/07/05 00:09:47;;;;;;;;;;;;;;;;;;4938759;28;19914;-78
2022/07/05 00:12:13;;;;;;;;;;;;;;;;;;4965259;28;19992;-78
2022/07/05 00:14:39;;;;;;;;;;;;;;;;;;4939829;28;19914;-78
2022/07/05 00:17:05;;;;;;;;;;;;;;;;;;4942992;28;19933;-78
2022/07/05 00:19:32;;;;;;;;;;;;;;;;;;4956062;28;20326;-78
2022/07/05 00:21:58;;;;;;;;;;;;;;;;;;4944873;28;20402;-78
2022/07/05 00:24:23;;;;;;;;;;;;;;;;;;4942418;28;19918;-78
2022/07/05 00:26:49;;;;;;;;;;;;;;;;;;4940809;28;21468;-78
2022/07/05 00:29:17;;;;;;;;;;;;;;;;;;4960914;28;19921;-78
2022/07/05 00:31:44;;;;;;;;;;;;;;;;;;4955909;28;19914;-77
2022/07/05 00:34:11;;;;;;;;;;;;;;;;;;4964033;28;19925;-78
2022/07/05 00:36:38;;;;;;;;;;;;;;;;;;4940288;28;20396;-78
2022/07/05 00:39:06;;;;;;;;;;;;;;;;;;4944023;28;20389;-78
2022/07/05 00:41:33;;;;;;;;;;;;;;;;;;4956777;28;19920;-78
2022/07/05 00:44:00;;;;;;;;;;;;;;;;;;4957199;28;19918;-78
2022/07/05 00:46:31;;;;;;;;;;;;;;;;;;4957411;28;19914;-78
2022/07/05 00:49:10;;;;;;;;;;;;;;;;;;4961763;28;19917;-78
2022/07/05 00:51:37;;;;;;;;;;;;;;;;;;4945727;28;20268;-77
2022/07/05 00:54:08;;;;;;;;;;;;;;;;;;4960510;28;19914;-78
2022/07/05 00:56:35;;;;;;;;;;;;;;;;;;4955799;28;20332;-78
2022/07/05 00:59:01;;;;;;;;;;;;;;;;;;4956691;28;19965;-78
2022/07/05 01:01:27;;;;;;;;;;;;;;;;;;4958758;28;20032;-78
2022/07/05 01:03:53;;;;;;;;;;;;;;;;;;4950998;28;19925;-77
2022/07/05 01:06:19;;;;;;;;;;;;;;;;;;4957592;28;19953;-79
2022/07/05 01:08:45;;;;;;;;;;;;;;;;;;4957483;28;20431;-77
2022/07/05 01:11:11;;;;;;;;;;;;;;;;;;4947408;28;19914;-78
2022/07/05 01:13:37;;;;;;;;;;;;;;;;;;4934011;28;19914;-78
2022/07/05 01:16:03;;;;;;;;;;;;;;;;;;4960998;28;19921;-77
2022/07/05 01:18:29;;;;;;;;;;;;;;;;;;4945001;28;19989;-77
2022/07/05 01:20:55;;;;;;;;;;;;;;;;;;4946330;28;20349;-78
2022/07/05 01:23:21;;;;;;;;;;;;;;;;;;4959384;28;20358;-77
2022/07/05 01:25:47;;;;;;;;;;;;;;;;;;4961315;28;20757;-78
2022/07/05 01:28:13;;;;;;;;;;;;;;;;;;4945133;28;20499;-77
2022/07/05 01:30:39;;;;;;;;;;;;;;;;;;4954766;28;19909;-78
2022/07/05 01:33:05;;;;;;;;;;;;;;;;;;4959140;28;20451;-77
2022/07/05 01:35:33;;;;;;;;;;;;;;;;;;4940819;28;20392;-77
2022/07/05 01:37:59;;;;;;;;;;;;;;;;;;4942258;28;19917;-78
2022/07/05 01:40:25;;;;;;;;;;;;;;;;;;4966343;28;19963;-77
2022/07/05 01:42:51;;;;;;;;;;;;;;;;;;4960303;28;20065;-77
2022/07/05 01:48:01;;;;;;;;;;;;;;;;;;4958066;28;19976;-77
2022/07/05 01:50:27;;;;;;;;;;;;;;;;;;4942433;28;20431;-76
2022/07/05 01:52:53;;;;;;;;;;;;;;;;;;4943149;28;19921;-77
2022/07/05 01:55:19;;;;;;;;;;;;;;;;;;4941079;28;19914;-77
2022/07/05 01:57:45;;;;;;;;;;;;;;;;;;4952904;28;19914;-76
2022/07/05 02:00:11;;;;;;;;;;;;;;;;;;4961837;28;20387;-76
2022/07/05 02:02:37;;;;;;;;;;;;;;;;;;4936338;28;19929;-77
2022/07/05 02:05:03;;;;;;;;;;;;;;;;;;4953656;28;20351;-77
2022/07/05 02:07:29;;;;;;;;;;;;;;;;;;4938766;28;20308;-75
2022/07/05 02:09:55;;;;;;;;;;;;;;;;;;4944670;28;20302;-76
2022/07/05 02:12:21;;;;;;;;;;;;;;;;;;4957803;28;21049;-76
2022/07/05 02:14:47;;;;;;;;;;;;;;;;;;4955683;28;19956;-77
2022/07/05 02:17:13;;;;;;;;;;;;;;;;;;4943190;28;19967;-77
2022/07/05 02:19:39;;;;;;;;;;;;;;;;;;4954557;28;20439;-77
2022/07/05 02:22:05;;;;;;;;;;;;;;;;;;4943736;28;19920;-77
2022/07/05 02:24:31;;;;;;;;;;;;;;;;;;4954443;28;20075;-76
2022/07/05 02:26:57;;;;;;;;;;;;;;;;;;4954544;28;20434;-77
2022/07/05 02:29:23;;;;;;;;;;;;;;;;;;4956148;28;19918;-76
2022/07/05 02:31:49;;;;;;;;;;;;;;;;;;4954999;28;19920;-76
2022/07/05 02:34:16;;;;;;;;;;;;;;;;;;4957631;28;20017;-76
2022/07/05 02:36:43;;;;;;;;;;;;;;;;;;4951028;28;19917;-74
2022/07/05 02:39:10;;;;;;;;;;;;;;;;;;4956662;28;20260;-76
2022/07/05 02:41:37;;;;;;;;;;;;;;;;;;4952324;28;19993;-77
2022/07/05 02:44:04;;;;;;;;;;;;;;;;;;4966694;28;20416;-77
2022/07/05 02:46:31;;;;;;;;;;;;;;;;;;4941597;28;20356;-77
2022/07/05 02:48:59;;;;;;;;;;;;;;;;;;4962043;28;19917;-77
2022/07/05 02:51:26;;;;;;;;;;;;;;;;;;4959667;28;19962;-77
2022/07/05 02:53:54;;;;;;;;;;;;;;;;;;4936917;28;20414;-77
2022/07/05 02:56:21;;;;;;;;;;;;;;;;;;4946788;28;19910;-77
2022/07/05 02:58:48;;;;;;;;;;;;;;;;;;4955774;28;19932;-77
2022/07/05 03:01:15;;;;;;;;;;;;;;;;;;4956071;28;20357;-76
2022/07/05 03:03:43;;;;;;;;;;;;;;;;;;4957502;28;20285;-76
2022/07/05 03:06:10;;;;;;;;;;;;;;;;;;4958870;28;19914;-76
2022/07/05 03:08:37;;;;;;;;;;;;;;;;;;4941673;28;19967;-79
2022/07/05 03:11:05;;;;;;;;;;;;;;;;;;4962648;28;20020;-78
2022/07/05 03:13:31;;;;;;;;;;;;;;;;;;4954973;28;20281;-76
2022/07/05 03:15:58;;;;;;;;;;;;;;;;;;4960922;28;20486;-76
2022/07/05 03:18:25;;;;;;;;;;;;;;;;;;4959586;28;20330;-76
2022/07/05 03:20:52;;;;;;;;;;;;;;;;;;4956966;28;19988;-76
2022/07/05 03:23:20;;;;;;;;;;;;;;;;;;4960404;28;20364;-76
2022/07/05 03:25:47;;;;;;;;;;;;;;;;;;4942723;28;20330;-77
2022/07/05 03:28:14;;;;;;;;;;;;;;;;;;4948626;28;19914;-76
2022/07/05 03:30:41;;;;;;;;;;;;;;;;;;4944134;28;19914;-77
2022/07/05 03:33:08;;;;;;;;;;;;;;;;;;4965605;28;20024;-76
2022/07/05 03:35:35;;;;;;;;;;;;;;;;;;4958996;28;20155;-77
2022/07/05 03:38:02;;;;;;;;;;;;;;;;;;4960328;28;20357;-78
2022/07/05 03:40:30;;;;;;;;;;;;;;;;;;4946140;28;19914;-76
2022/07/05 03:42:57;;;;;;;;;;;;;;;;;;4962727;28;19922;-76
2022/07/05 03:45:24;;;;;;;;;;;;;;;;;;4962099;28;19945;-77
2022/07/05 03:47:50;;;;;;;;;;;;;;;;;;4957567;28;20301;-77
2022/07/05 03:50:18;;;;;;;;;;;;;;;;;;4959422;28;20236;-77
2022/07/05 03:52:44;;;;;;;;;;;;;;;;;;4958198;28;19925;-76
2022/07/05 03:55:11;;;;;;;;;;;;;;;;;;4938590;28;20292;-77
2022/07/05 03:57:39;;;;;;;;;;;;;;;;;;4956437;28;20267;-77
2022/07/05 04:00:06;;;;;;;;;;;;;;;;;;4956185;28;19932;-76
2022/07/05 04:02:34;;;;;;;;;;;;;;;;;;4956066;28;20000;-77
2022/07/05 04:05:01;;;;;;;;;;;;;;;;;;4943572;28;19918;-77
2022/07/05 04:07:28;;;;;;;;;;;;;;;;;;4960520;28;19913;-77
2022/07/05 04:09:55;;;;;;;;;;;;;;;;;;4962489;28;19918;-77
2022/07/05 04:12:22;;;;;;;;;;;;;;;;;;4960455;28;19913;-77
2022/07/05 04:14:50;;;;;;;;;;;;;;;;;;4943409;28;20000;-77
2022/07/05 04:17:16;;;;;;;;;;;;;;;;;;4956490;28;19914;-77
2022/07/05 04:19:43;;;;;;;;;;;;;;;;;;4945549;28;20311;-78
2022/07/05 04:22:10;;;;;;;;;;;;;;;;;;4942126;28;19989;-78
2022/07/05 04:25:23;;;;;;;;;;;;;;;;;;4962074;28;19917;-78
2022/07/05 04:27:25;;;;;;;;;;;;;;;;;;4946606;28;20364;-78
2022/07/05 04:29:52;;;;;;;;;;;;;;;;;;4958009;28;19921;-78
2022/07/05 04:32:19;;;;;;;;;;;;;;;;;;4960054;28;20442;-78
2022/07/05 04:34:45;;;;;;;;;;;;;;;;;;4939750;28;19914;-78
2022/07/05 04:37:12;;;;;;;;;;;;;;;;;;4939621;28;21261;-78
2022/07/05 04:39:39;;;;;;;;;;;;;;;;;;4957549;28;20214;-78
2022/07/05 04:42:05;;;;;;;;;;;;;;;;;;4958457;28;20640;-78
2022/07/05 04:44:31;;;;;;;;;;;;;;;;;;4945430;28;19922;-78
2022/07/05 04:46:59;;;;;;;;;;;;;;;;;;4948336;28;20372;-78
2022/07/05 04:49:26;;;;;;;;;;;;;;;;;;4958683;28;19914;-78
2022/07/05 04:51:51;;;;;;;;;;;;;;;;;;4957922;28;19917;-78
2022/07/05 04:54:19;;;;;;;;;;;;;;;;;;4961132;28;19921;-78
2022/07/05 04:56:46;;;;;;;;;;;;;;;;;;4937061;28;19926;-78
2022/07/05 04:59:13;;;;;;;;;;;;;;;;;;4937350;28;19925;-78
2022/07/05 05:01:40;;;;;;;;;;;;;;;;;;4942996;28;20374;-78
2022/07/05 05:04:06;;;;;;;;;;;;;;;;;;4963182;28;20409;-78
2022/07/05 05:06:32;;;;;;;;;;;;;;;;;;4945154;28;20449;-77
2022/07/05 05:08:58;;;;;;;;;;;;;;;;;;4963425;28;19925;-78
2022/07/05 05:11:24;;;;;;;;;;;;;;;;;;4960520;28;19914;-78
2022/07/05 05:13:50;;;;;;;;;;;;;;;;;;4951366;28;20838;-78
2022/07/05 05:16:16;;;;;;;;;;;;;;;;;;4941194;28;20008;-74
2022/07/05 05:18:42;;;;;;;;;;;;;;;;;;4956071;28;20065;-72
2022/07/05 05:21:07;;;;;;;;;;;;;;;;;;4961970;28;20097;-73
2022/07/05 05:23:33;;;;;;;;;;;;;;;;;;4957513;28;19917;-74
2022/07/05 05:25:59;;;;;;;;;;;;;;;;;;4945864;28;19914;-73
2022/07/05 05:28:25;;;;;;;;;;;;;;;;;;4958470;28;19920;-73
2022/07/05 05:30:51;;;;;;;;;;;;;;;;;;4947645;28;21483;-73
2022/07/05 05:33:17;;;;;;;;;;;;;;;;;;4957914;28;19920;-73
2022/07/05 05:35:43;;;;;;;;;;;;;;;;;;4940580;28;19914;-73
2022/07/05 05:38:09;;;;;;;;;;;;;;;;;;4945627;28;20364;-73
2022/07/05 05:40:37;;;;;;;;;;;;;;;;;;4947000;28;19914;-73
2022/07/05 05:43:03;;;;;;;;;;;;;;;;;;4957940;28;19918;-73
2022/07/05 05:45:29;;;;;;;;;;;;;;;;;;4941801;28;19920;-73
2022/07/05 05:47:55;;;;;;;;;;;;;;;;;;4959293;28;19995;-73
2022/07/05 05:50:21;;;;;;;;;;;;;;;;;;4953793;28;19925;-73
2022/07/05 05:52:47;;;;;;;;;;;;;;;;;;4962439;28;19914;-73
2022/07/05 05:55:13;;;;;;;;;;;;;;;;;;4960761;28;20381;-73
2022/07/05 05:57:39;;;;;;;;;;;;;;;;;;4935145;28;19913;-74
2022/07/05 06:00:05;;;;;;;;;;;;;;;;;;4968474;28;20004;-73
2022/07/05 06:02:31;;;;;;;;;;;;;;;;;;4945173;28;19914;-73
2022/07/05 06:04:57;;;;;;;;;;;;;;;;;;4969619;28;19925;-73
2022/07/05 06:07:23;;;;;;;;;;;;;;;;;;4951551;28;19952;-73
2022/07/05 06:09:49;;;;;;;;;;;;;;;;;;4948584;28;19917;-73
2022/07/05 06:12:15;;;;;;;;;;;;;;;;;;4951710;28;19918;-73
2022/07/05 06:14:41;;;;;;;;;;;;;;;;;;4962178;28;19917;-74
2022/07/05 06:17:07;;;;;;;;;;;;;;;;;;4944863;28;19924;-73
2022/07/05 06:19:33;;;;;;;;;;;;;;;;;;4952588;28;20339;-73
2022/07/05 06:21:58;;;;;;;;;;;;;;;;;;4955261;28;20020;-73
2022/07/05 06:24:26;;;;;;;;;;;;;;;;;;4953571;28;19925;-73
2022/07/05 06:26:52;;;;;;;;;;;;;;;;;;4950887;28;19913;-74
2022/07/05 06:29:18;;;;;;;;;;;;;;;;;;4957907;28;20464;-73
2022/07/05 06:31:44;;;;;;;;;;;;;;;;;;4949201;28;20276;-73
2022/07/05 06:34:10;;;;;;;;;;;;;;;;;;4957655;28;20387;-73
2022/07/05 06:36:36;;;;;;;;;;;;;;;;;;4952474;28;19913;-73
2022/07/05 06:39:02;;;;;;;;;;;;;;;;;;4940442;28;19913;-73
2022/07/05 06:41:27;;;;;;;;;;;;;;;;;;4959174;28;19914;-74
2022/07/05 06:43:53;;;;;;;;;;;;;;;;;;4940223;28;19946;-74
2022/07/05 06:46:19;;;;;;;;;;;;;;;;;;4939168;28;19981;-74
2022/07/05 06:48:45;;;;;;;;;;;;;;;;;;4961991;28;19918;-74
2022/07/05 06:51:13;;;;;;;;;;;;;;;;;;4946148;28;19949;-74
2022/07/05 06:53:39;;;;;;;;;;;;;;;;;;4957428;28;19924;-74
2022/07/05 06:56:07;;;;;;;;;;;;;;;;;;4964256;28;20020;-74
2022/07/05 06:58:35;;;;;;;;;;;;;;;;;;4959898;28;20413;-74
2022/07/05 07:01:01;;;;;;;;;;;;;;;;;;4946141;28;19921;-74
2022/07/05 07:03:31;;;;;;;;;;;;;;;;;;4942858;28;19922;-74
2022/07/05 07:05:57;;;;;;;;;;;;;;;;;;4952541;28;19918;-75
2022/07/05 07:11:08;;;;;;;;;;;;;;;;;;4953774;28;19921;-73
2022/07/05 07:13:34;;;;;;;;;;;;;;;;;;4958736;28;19914;-73
2022/07/05 07:16:00;;;;;;;;;;;;;;;;;;4956215;28;19919;-72
2022/07/05 07:18:26;;;;;;;;;;;;;;;;;;4954067;28;19929;-73
2022/07/05 07:20:52;;;;;;;;;;;;;;;;;;4938361;28;19918;-75
2022/07/05 07:23:19;;;;;;;;;;;;;;;;;;4953871;28;20028;-74
2022/07/05 07:25:47;;;;;;;;;;;;;;;;;;4932024;28;19920;-74
2022/07/05 07:28:13;;;;;;;;;;;;;;;;;;4941705;28;19969;-74
2022/07/05 07:30:39;;;;;;;;;;;;;;;;;;4933977;28;20423;-74
2022/07/05 07:33:05;;;;;;;;;;;;;;;;;;4953019;28;19914;-75
2022/07/05 07:35:32;;;;;;;;;;;;;;;;;;4939223;28;19972;-74
2022/07/05 07:37:58;;;;;;;;;;;;;;;;;;4959767;28;20272;-75
2022/07/05 07:40:24;;;;;;;;;;;;;;;;;;4940784;28;20795;-74
2022/07/05 07:42:50;;;;;;;;;;;;;;;;;;4956476;28;20373;-75
2022/07/05 07:45:16;;;;;;;;;;;;;;;;;;4966835;28;19952;-74
2022/07/05 07:47:42;;;;;;;;;;;;;;;;;;4941344;28;20061;-74
2022/07/05 07:50:08;;;;;;;;;;;;;;;;;;4952002;28;20012;-74
2022/07/05 07:52:34;;;;;;;;;;;;;;;;;;4950479;28;20009;-75
2022/07/05 07:55:00;;;;;;;;;;;;;;;;;;4954091;28;19920;-74
2022/07/05 07:57:26;;;;;;;;;;;;;;;;;;4950712;28;20250;-74
2022/07/05 07:59:55;;;;;;;;;;;;;;;;;;4966686;28;19918;-74
2022/07/05 08:02:22;;;;;;;;;;;;;;;;;;4945812;28;20314;-74
2022/07/05 08:04:48;;;;;;;;;;;;;;;;;;4959619;28;19925;-75
2022/07/05 08:07:15;;;;;;;;;;;;;;;;;;4949408;28;20022;-72
2022/07/05 08:09:41;;;;;;;;;;;;;;;;;;4946979;28;19914;-73
2022/07/05 08:12:07;;;;;;;;;;;;;;;;;;4962432;28;20424;-73
2022/07/05 08:14:33;;;;;;;;;;;;;;;;;;4961278;28;20684;-72
2022/07/05 08:16:59;;;;;;;;;;;;;;;;;;4959256;28;20610;-74
2022/07/05 08:22:10;;;;;;;;;;;;;;;;;;4954693;28;20024;-73
2022/07/05 08:24:36;;;;;;;;;;;;;;;;;;4945518;28;20449;-73
2022/07/05 08:27:02;;;;;;;;;;;;;;;;;;4944303;28;19925;-73
2022/07/05 08:29:28;;;;;;;;;;;;;;;;;;4961635;28;19922;-73
2022/07/05 08:31:54;;;;;;;;;;;;;;;;;;4958975;28;20014;-73
2022/07/05 08:34:20;;;;;;;;;;;;;;;;;;4942885;28;19941;-73
2022/07/05 08:36:46;;;;;;;;;;;;;;;;;;4943563;28;19935;-72
2022/07/05 08:39:14;;;;;;;;;;;;;;;;;;4943979;28;19920;-72
2022/07/05 08:41:40;;;;;;;;;;;;;;;;;;4947506;28;19913;-74
2022/07/05 08:44:07;;;;;;;;;;;;;;;;;;4948289;28;19976;-73
2022/07/05 08:46:33;;;;;;;;;;;;;;;;;;4950792;28;19969;-73
2022/07/05 08:48:59;;;;;;;;;;;;;;;;;;4957806;28;19994;-73
2022/07/05 08:51:25;;;;;;;;;;;;;;;;;;4964736;28;19914;-72
2022/07/05 08:53:51;;;;;;;;;;;;;;;;;;4943648;28;20715;-73
2022/07/05 08:56:17;;;;;;;;;;;;;;;;;;4943100;28;20008;-73
2022/07/05 08:58:43;;;;;;;;;;;;;;;;;;4942771;28;19914;-74
2022/07/05 09:01:09;;;;;;;;;;;;;;;;;;4943600;28;19937;-74
2022/07/05 09:03:35;;;;;;;;;;;;;;;;;;4948486;28;19930;-74
2022/07/05 09:06:01;;;;;;;;;;;;;;;;;;4949866;28;19913;-73
2022/07/05 09:08:27;;;;;;;;;;;;;;;;;;4962238;28;19918;-76
2022/07/05 09:10:53;;;;;;;;;;;;;;;;;;4960714;28;20040;-73
2022/07/05 09:13:19;;;;;;;;;;;;;;;;;;4961697;28;19921;-73
2022/07/05 09:15:45;;;;;;;;;;;;;;;;;;4941982;28;20028;-73
2022/07/05 09:18:11;;;;;;;;;;;;;;;;;;4956656;28;19921;-73
2022/07/05 09:20:37;;;;;;;;;;;;;;;;;;4952815;28;20394;-73
2022/07/05 09:23:03;;;;;;;;;;;;;;;;;;4960837;28;21046;-73
2022/07/05 09:25:29;;;;;;;;;;;;;;;;;;4940708;28;19914;-73
2022/07/05 09:27:55;;;;;;;;;;;;;;;;;;4937853;28;19909;-73
2022/07/05 09:30:21;;;;;;;;;;;;;;;;;;4940657;28;19920;-73
2022/07/05 09:32:47;;;;;;;;;;;;;;;;;;4941210;28;20288;-73
2022/07/05 09:35:13;;;;;;;;;;;;;;;;;;4939374;28;20462;-73
2022/07/05 09:37:39;;;;;;;;;;;;;;;;;;4955244;28;19917;-73
2022/07/05 09:40:05;;;;;;;;;;;;;;;;;;4961950;28;19940;-73
2022/07/05 09:42:31;;;;;;;;;;;;;;;;;;4954420;28;20321;-73
2022/07/05 09:44:57;;;;;;;;;;;;;;;;;;4947773;28;19974;-73
2022/07/05 09:47:25;;;;;;;;;;;;;;;;;;4954820;28;20004;-73
2022/07/05 09:49:51;;;;;;;;;;;;;;;;;;4923612;28;20402;-74
2022/07/05 09:52:17;;;;;;;;;;;;;;;;;;4909826;28;19921;-74
2022/07/05 09:54:43;;;;;;;;;;;;;;;;;;4940206;28;19914;-73
2022/07/05 09:57:10;;;;;;;;;;;;;;;;;;4944521;28;20387;-76
2022/07/05 09:59:36;;;;;;;;;;;;;;;;;;4944597;28;20283;-74
2022/07/05 10:02:02;;;;;;;;;;;;;;;;;;4946335;28;19920;-74
2022/07/05 10:04:28;;;;;;;;;;;;;;;;;;4930256;28;19926;-75
2022/07/05 10:06:54;;;;;;;;;;;;;;;;;;4946337;28;20320;-74
2022/07/05 10:09:20;;;;;;;;;;;;;;;;;;4959161;28;19924;-74
2022/07/05 10:11:46;;;;;;;;;;;;;;;;;;4938077;28;19992;-73
2022/07/05 10:14:12;;;;;;;;;;;;;;;;;;4947485;28;19914;-73
2022/07/05 10:16:38;;;;;;;;;;;;;;;;;;4936118;28;19914;-75
2022/07/05 10:19:04;;;;;;;;;;;;;;;;;;4944515;28;20374;-74
2022/07/05 10:21:30;;;;;;;;;;;;;;;;;;4957162;28;19989;-74
2022/07/05 10:23:56;;;;;;;;;;;;;;;;;;4943650;28;19918;-73
2022/07/05 10:26:22;;;;;;;;;;;;;;;;;;4920151;28;19914;-74
2022/07/05 10:28:49;;;;;;;;;;;;;;;;;;4891460;28;19921;-74
2022/07/05 10:31:15;;;;;;;;;;;;;;;;;;4906706;28;20017;-74
2022/07/05 10:33:41;;;;;;;;;;;;;;;;;;4903472;28;19913;-73
2022/07/05 10:36:07;;;;;;;;;;;;;;;;;;4913601;28;19913;-72
2022/07/05 10:38:33;;;;;;;;;;;;;;;;;;4896080;28;21355;-74
2022/07/05 10:40:59;;;;;;;;;;;;;;;;;;4902300;28;19914;-74
2022/07/05 10:43:25;;;;;;;;;;;;;;;;;;4894461;28;19918;-77
2022/07/05 10:45:51;;;;;;;;;;;;;;;;;;4900870;28;19925;-74
2022/07/05 10:48:17;;;;;;;;;;;;;;;;;;4911955;28;19913;-73
2022/07/05 10:50:43;;;;;;;;;;;;;;;;;;4898520;28;21192;-73
2022/07/05 10:53:09;;;;;;;;;;;;;;;;;;4914788;28;19948;-77
2022/07/05 10:55:35;;;;;;;;;;;;;;;;;;4911092;28;19913;-74
2022/07/05 10:58:01;;;;;;;;;;;;;;;;;;4925168;28;19964;-74
2022/07/05 11:00:26;;;;;;;;;;;;;;;;;;4919421;28;20323;-76
2022/07/05 11:02:52;;;;;;;;;;;;;;;;;;4929970;28;19991;-76
2022/07/05 11:05:18;;;;;;;;;;;;;;;;;;4956671;28;19917;-74
2022/07/05 11:07:44;;;;;;;;;;;;;;;;;;4947936;28;19960;-74
2022/07/05 11:10:10;;;;;;;;;;;;;;;;;;4947729;28;19921;-74
2022/07/05 11:12:37;;;;;;;;;;;;;;;;;;4948587;28;19914;-74
2022/07/05 11:15:03;;;;;;;;;;;;;;;;;;4936426;28;19917;-74
2022/07/05 11:17:36;;;;;;;;;;;;;;;;;;4937862;28;19921;-74
2022/07/05 11:20:02;;;;;;;;;;;;;;;;;;4937271;28;19973;-74
2022/07/05 11:22:28;;;;;;;;;;;;;;;;;;4956489;28;20166;-74
2022/07/05 11:24:54;;;;;;;;;;;;;;;;;;4932668;28;20036;-76
2022/07/05 11:27:20;;;;;;;;;;;;;;;;;;4946349;28;19914;-76
2022/07/05 11:29:47;;;;;;;;;;;;;;;;;;4925931;28;19914;-73
2022/07/05 11:32:13;;;;;;;;;;;;;;;;;;4931672;28;20157;-73
2022/07/05 11:34:39;;;;;;;;;;;;;;;;;;4941312;28;19917;-74
2022/07/05 11:37:05;;;;;;;;;;;;;;;;;;4928046;28;20415;-74
2022/07/05 11:39:30;;;;;;;;;;;;;;;;;;4910418;28;20017;-74
2022/07/05 11:41:56;;;;;;;;;;;;;;;;;;4928616;28;20497;-74
2022/07/05 11:44:22;;;;;;;;;;;;;;;;;;4923102;28;19918;-74
2022/07/05 11:46:48;;;;;;;;;;;;;;;;;;4912768;28;19941;-75
2022/07/05 11:49:14;;;;;;;;;;;;;;;;;;4935160;28;19924;-75
2022/07/05 11:51:40;;;;;;;;;;;;;;;;;;4939072;28;20427;-74
2022/07/05 11:54:06;;;;;;;;;;;;;;;;;;4938537;28;20280;-74
2022/07/05 11:56:32;;;;;;;;;;;;;;;;;;4936975;28;19913;-75
2022/07/05 11:58:58;;;;;;;;;;;;;;;;;;4935857;28;19918;-75
2022/07/05 12:01:24;;;;;;;;;;;;;;;;;;4924519;28;19961;-75
2022/07/05 12:03:50;;;;;;;;;;;;;;;;;;4963162;28;19925;-75
2022/07/05 12:06:17;;;;;;;;;;;;;;;;;;4965386;28;19921;-75
2022/07/05 12:08:43;;;;;;;;;;;;;;;;;;4953724;28;19937;-76
2022/07/05 12:13:57;;;;;;;;;;;;;;;;;;4961489;28;19921;-75
2022/07/05 12:16:25;;;;;;;;;;;;;;;;;;4965621;28;19964;-75
2022/07/05 12:18:51;;;;;;;;;;;;;;;;;;4943346;28;19942;-75
2022/07/05 12:21:17;;;;;;;;;;;;;;;;;;4968473;28;20360;-75
2022/07/05 12:23:44;;;;;;;;;;;;;;;;;;4953440;28;20287;-75
2022/07/05 12:26:10;;;;;;;;;;;;;;;;;;4968060;28;19913;-75
2022/07/05 12:28:36;;;;;;;;;;;;;;;;;;4954993;28;19921;-75
2022/07/05 12:31:02;;;;;;;;;;;;;;;;;;4942544;28;19987;-74
2022/07/05 12:33:29;;;;;;;;;;;;;;;;;;4960064;28;19914;-76
2022/07/05 12:35:55;;;;;;;;;;;;;;;;;;4914520;28;20581;-76
2022/07/05 12:38:21;;;;;;;;;;;;;;;;;;4915289;28;19910;-76
2022/07/05 12:40:47;;;;;;;;;;;;;;;;;;4924134;28;20257;-76
2022/07/05 12:43:13;;;;;;;;;;;;;;;;;;4909419;28;19925;-76
2022/07/05 12:45:39;;;;;;;;;;;;;;;;;;4924050;28;20436;-76
2022/07/05 12:48:05;;;;;;;;;;;;;;;;;;4925402;28;20399;-75
2022/07/05 12:50:31;;;;;;;;;;;;;;;;;;4908352;28;19918;-74
2022/07/05 12:52:57;;;;;;;;;;;;;;;;;;4923846;28;20475;-74
2022/07/05 12:58:08;;;;;;;;;;;;;;;;;;4921923;28;20489;-74
2022/07/05 13:00:34;;;;;;;;;;;;;;;;;;4907966;28;19918;-77
2022/07/05 13:03:03;;;;;;;;;;;;;;;;;;4913488;28;20356;-74
2022/07/05 13:05:31;;;;;;;;;;;;;;;;;;4909161;28;20345;-75
2022/07/05 13:07:57;;;;;;;;;;;;;;;;;;4928471;28;20020;-75
2022/07/05 13:10:23;;;;;;;;;;;;;;;;;;4931691;28;19919;-77
2022/07/05 13:12:51;;;;;;;;;;;;;;;;;;4925749;28;19956;-76
2022/07/05 13:15:17;;;;;;;;;;;;;;;;;;4940108;28;19914;-76
2022/07/05 13:17:43;;;;;;;;;;;;;;;;;;4959106;28;19913;-76
2022/07/05 13:20:09;;;;;;;;;;;;;;;;;;4965268;28;19917;-76
2022/07/05 13:22:35;;;;;;;;;;;;;;;;;;4937761;28;20356;-76
2022/07/05 13:25:02;;;;;;;;;;;;;;;;;;4939553;28;19917;-76
2022/07/05 13:27:28;;;;;;;;;;;;;;;;;;4958774;28;19913;-76
2022/07/05 13:29:54;;;;;;;;;;;;;;;;;;4958606;28;20399;-76
2022/07/05 13:32:21;;;;;;;;;;;;;;;;;;4940374;28;19920;-77
2022/07/05 13:34:48;;;;;;;;;;;;;;;;;;4945140;28;20469;-76
2022/07/05 13:37:14;;;;;;;;;;;;;;;;;;4960601;28;19945;-77
2022/07/05 13:39:40;;;;;;;;;;;;;;;;;;4957937;28;20395;-76
2022/07/05 13:42:06;;;;;;;;;;;;;;;;;;4942991;28;20400;-77
2022/07/05 13:44:32;;;;;;;;;;;;;;;;;;4936457;28;20272;-79
2022/07/05 13:46:58;;;;;;;;;;;;;;;;;;4940707;28;20008;-76
2022/07/05 13:49:24;;;;;;;;;;;;;;;;;;4960320;28;20814;-75
2022/07/05 13:51:50;;;;;;;;;;;;;;;;;;4956704;28;23629;-76
2022/07/05 13:54:16;;;;;;;;;;;;;;;;;;4943549;28;19913;-75
2022/07/05 13:56:42;;;;;;;;;;;;;;;;;;4937498;28;20353;-76
2022/07/05 13:59:08;;;;;;;;;;;;;;;;;;4962090;28;20399;-76
2022/07/05 14:01:34;;;;;;;;;;;;;;;;;;4943438;28;19914;-76
2022/07/05 14:04:01;;;;;;;;;;;;;;;;;;4963662;28;20012;-76
2022/07/05 14:06:27;;;;;;;;;;;;;;;;;;4942817;28;20334;-76
2022/07/05 14:08:53;;;;;;;;;;;;;;;;;;4961724;28;20286;-75
2022/07/05 14:11:19;;;;;;;;;;;;;;;;;;4972836;28;19972;-76
2022/07/05 14:13:45;;;;;;;;;;;;;;;;;;4948648;28;20091;-76
2022/07/05 14:16:11;;;;;;;;;;;;;;;;;;4964214;28;20330;-76
2022/07/05 14:18:37;;;;;;;;;;;;;;;;;;4956841;28;19926;-76
2022/07/05 14:21:03;;;;;;;;;;;;;;;;;;4947935;28;19937;-76
2022/07/05 14:23:30;;;;;;;;;;;;;;;;;;4953106;28;19921;-75
2022/07/05 14:25:56;;;;;;;;;;;;;;;;;;4963178;28;20068;-76
2022/07/05 14:28:22;;;;;;;;;;;;;;;;;;4949172;28;19913;-75
2022/07/05 14:30:48;;;;;;;;;;;;;;;;;;4946899;28;20006;-78
2022/07/05 14:33:14;;;;;;;;;;;;;;;;;;4961554;28;20241;-81
2022/07/05 14:35:40;;;;;;;;;;;;;;;;;;4964755;28;20195;-80
2022/07/05 14:38:06;;;;;;;;;;;;;;;;;;4957736;28;19924;-79
2022/07/05 14:40:32;;;;;;;;;;;;;;;;;;4941318;28;19922;-81
2022/07/05 14:42:58;;;;;;;;;;;;;;;;;;4954056;28;19914;-80
2022/07/05 14:45:25;;;;;;;;;;;;;;;;;;4965803;28;19921;-80
2022/07/05 14:47:51;;;;;;;;;;;;;;;;;;4963338;28;19968;-79
2022/07/05 14:50:16;;;;;;;;;;;;;;;;;;4960221;28;20005;-80
2022/07/05 14:52:43;;;;;;;;;;;;;;;;;;4947899;28;19921;-80
2022/07/05 14:55:09;;;;;;;;;;;;;;;;;;4946191;28;19938;-80
2022/07/05 14:57:35;;;;;;;;;;;;;;;;;;4942287;28;20334;-80
2022/07/05 15:00:01;;;;;;;;;;;;;;;;;;4943099;28;20012;-80
2022/07/05 15:02:26;;;;;;;;;;;;;;;;;;4947611;28;20424;-80
2022/07/05 15:04:54;;;;;;;;;;;;;;;;;;4960690;28;19973;-80
2022/07/05 15:07:20;;;;;;;;;;;;;;;;;;4945257;28;19915;-80
2022/07/05 15:09:48;;;;;;;;;;;;;;;;;;4961822;28;19920;-82
2022/07/05 15:12:14;;;;;;;;;;;;;;;;;;4948523;28;20279;-80
2022/07/05 15:14:41;;;;;;;;;;;;;;;;;;4957612;28;19949;-80
2022/07/05 15:17:08;;;;;;;;;;;;;;;;;;4944466;28;19920;-80
2022/07/05 15:19:34;;;;;;;;;;;;;;;;;;4944756;28;19973;-81
2022/07/05 15:22:02;;;;;;;;;;;;;;;;;;4958082;28;20439;-80
2022/07/05 15:24:28;;;;;;;;;;;;;;;;;;4969334;28;20033;-81
2022/07/05 15:26:54;;;;;;;;;;;;;;;;;;4937029;28;19988;-79
2022/07/05 15:29:20;;;;;;;;;;;;;;;;;;4959879;28;19961;-79
2022/07/05 15:31:46;;;;;;;;;;;;;;;;;;4957988;28;19981;-78
2022/07/05 15:34:12;;;;;;;;;;;;;;;;;;4944965;28;19914;-79
2022/07/05 15:36:38;;;;;;;;;;;;;;;;;;4954590;28;19913;-79
2022/07/05 15:39:04;;;;;;;;;;;;;;;;;;4962698;28;20416;-79
2022/07/05 15:41:32;;;;;;;;;;;;;;;;;;4960827;28;19913;-79
2022/07/05 15:43:58;;;;;;;;;;;;;;;;;;4970499;28;19973;-80
2022/07/05 15:46:24;;;;;;;;;;;;;;;;;;4958545;28;20413;-79
2022/07/05 15:48:50;;;;;;;;;;;;;;;;;;4935877;28;21902;-79
2022/07/05 15:51:16;;;;;;;;;;;;;;;;;;4951812;28;19910;-80
2022/07/05 15:53:42;;;;;;;;;;;;;;;;;;4946799;28;19913;-80
2022/07/05 15:56:08;;;;;;;;;;;;;;;;;;4952162;28;19910;-80
2022/07/05 15:58:34;;;;;;;;;;;;;;;;;;4960018;28;20275;-80
2022/07/05 16:01:01;;;;;;;;;;;;;;;;;;4953559;28;19918;-79
2022/07/05 16:03:27;;;;;;;;;;;;;;;;;;4968159;28;19927;-80
2022/07/05 16:05:55;;;;;;;;;;;;;;;;;;4963380;28;19997;-79
2022/07/05 16:08:21;;;;;;;;;;;;;;;;;;4944131;28;19930;-80
2022/07/05 16:10:46;;;;;;;;;;;;;;;;;;4944376;28;19969;-79
2022/07/05 16:13:15;;;;;;;;;;;;;;;;;;4942274;28;19921;-79
2022/07/05 16:18:25;;;;;;;;;;;;;;;;;;4964136;28;19920;-80
2022/07/05 16:20:51;;;;;;;;;;;;;;;;;;4966012;28;20303;-79
2022/07/05 16:23:17;;;;;;;;;;;;;;;;;;4960527;28;20087;-79
2022/07/05 16:25:43;;;;;;;;;;;;;;;;;;4961621;28;19920;-79
2022/07/05 16:28:09;;;;;;;;;;;;;;;;;;4959197;28;19977;-79
2022/07/05 16:30:35;;;;;;;;;;;;;;;;;;4967830;28;19922;-79
2022/07/05 16:33:01;;;;;;;;;;;;;;;;;;4961830;28;19980;-79
2022/07/05 16:35:27;;;;;;;;;;;;;;;;;;4954521;28;20353;-79
2022/07/05 16:37:53;;;;;;;;;;;;;;;;;;4966810;28;19946;-79
2022/07/05 16:40:19;;;;;;;;;;;;;;;;;;4950882;28;19914;-79
2022/07/05 16:42:45;;;;;;;;;;;;;;;;;;4968525;28;20427;-79
2022/07/05 16:45:11;;;;;;;;;;;;;;;;;;4967322;28;19917;-79
2022/07/05 16:47:37;;;;;;;;;;;;;;;;;;4946170;28;20359;-79
2022/07/05 16:50:03;;;;;;;;;;;;;;;;;;4949353;28;20280;-79
2022/07/05 16:52:29;;;;;;;;;;;;;;;;;;4971629;28;20373;-79
2022/07/05 16:54:55;;;;;;;;;;;;;;;;;;4952881;28;20540;-79